AirNav   SIMCOM
 
 1511 users online  

62TE Otto Kaiser Hospital Heliport
Kenedy, Texas, USA


FAA INFORMATION EFFECTIVE 07 DECEMBER 2017

Location

FAA Identifier: 62TE
Lat/Long: 28-51-00.9230N / 097-52-44.0060W
28-51.015383N / 097-52.733433W
28.8502564 / -97.8788906
(estimated)
Elevation: 395 ft. / 120 m (estimated)
Variation: 07E (1985)
From city: 2 miles N of KENEDY, TX
Time zone: UTC -6 (UTC -5 during Daylight Saving Time)
Zip code: 78119

Heliport Operations

Heliport use: Private use, MEDICAL.
Activation date: 09/1972
Control tower: no
ARTCC: HOUSTON CENTER
FSS: SAN ANGELO FLIGHT SERVICE STATION
Attendance: UNATNDD
Wind indicator: yes
Segmented circle: no
Lights: FOR PERIMETER LGTS CALL 830-583-3401.

Nearby radio navigation aids

VOR radial/distance  VOR name  Freq  Var
THXr027/25.2THREE RIVERS VORTAC111.4008E
SSFr121/(38.4)STINSON VOR108.4009E

Heliport Services

Runway Information

Helipad H1

Dimensions: 90 x 90 ft. / 27 x 27 m
Surface: concrete
Runway edge lights: PERI
Latitude: 28-51.015333N
Longitude: 097-52.733500W
Elevation: 395.0 ft.
Traffic pattern: leftleft

Heliport Ownership and Management from official FAA records

Ownership: Publicly-owned
Owner: OTTO KAISER MEMORIAL HOSPITAL
3349 S. HWY 181
KENEDY, TX 78119
Phone 830-583-3401
Manager: CHRISTINA BENAVIDES
3349 S. HWY 181
KENEDY, TX 78119
Phone 830-583-3401
ADDITIONAL CONTACT: FREDDY MOYA - 830-583-4572.

Additional Remarks

A52-H1 RADIO TWR NW OF HELIPAD; LGTD WATER TOWER 250 FT FROM THLD.

Instrument Procedures

There are no published instrument procedures at 62TE.

Some nearby airports with instrument procedures:

2R9 - Karnes County Airport (2 nm SE)
KNGT - Goliad Naval Outlying Field (20 nm SE)
KBEA - Beeville Municipal Airport (30 nm S)
TX2 - Chase Field Industrial Airport (31 nm S)
8T6 - Live Oak County Airport (32 nm SW)
 
Loc | Ops | Rwys | IFR | FBO | Links
Com | Nav | Svcs | Stats | Notes


 
Area around 62TE (Otto Kaiser Hospital Heliport)
 
Road maps at: MapQuest Bing Google
 
Aerial photo
No photo
 
Sectional chart

 
Airport distance calculator
Flying to Otto Kaiser Hospital Heliport? Find the distance to fly.

From to 62TE

Sunrise and sunset
Times for 11-Dec-2017
 Local
(UTC-6)
 Zulu
(UTC)
Morning civil twilight06:5012:50
Sunrise07:1613:16
Sunset17:3423:34
Evening civil twilight18:0024:00

Current date and time
Zulu (UTC)  11-Dec-2017 20:41:52
Local (UTC-6)  11-Dec-2017 14:41:52
 
METAR
KBEA 
30nm S 
112015Z AUTO 23006KT 10SM CLR 22/01 A3024 RMK AO2 T02190006
KPEZ 
34nm W 
112015Z AUTO 25004KT 10SM CLR 23/00 A3024 RMK AO2 T02251003
KSSF 
42nm NW 
111953Z VRB04KT 10SM CLR 23/M01 A3022 RMK AO2 SLP231 T02281006 $
KRND 
45nm NW 
111956Z AUTO 21004KT 10SM CLR 23/M03 A3022 RMK AO2 SLP233 T02271029
KT20 
46nm NE 
112015Z AUTO 23008KT 10SM CLR 24/01 A3021 RMK AO2 T02440006
KSKF 
48nm NW 
111956Z AUTO 23007KT 10SM CLR 22/M01 A3022 RMK AO2 SLP233 T02241010 $
KVCT 
50nm E 
111951Z 21009KT 10SM FEW100 23/02 A3024 RMK AO2 SLP240 T02330017
TAF
KSSF 
42nm NW 
111720Z 1118/1218 23005KT P6SM SCT250 FM121000 36013KT P6SM FEW250
KRND 
45nm NW 
111800Z 1118/1224 24006KT 9999 SCT200 QNH3018INS BECMG 1211/1212 01009KT 9999 SCT200 WS020/04040KT QNH3018INS BECMG 1215/1216 02012G20KT 9999 SKC QNH3030INS BECMG 1220/1221 01012KT 9999 SKC QNH3028INS TX24/1120Z TN08/1211Z
KSKF 
48nm NW 
111800Z 1118/1224 24006KT 9999 SCT200 QNH3018INS BECMG 1211/1212 01009KT 9999 SCT200 WS020/04040KT QNH3018INS BECMG 1215/1216 02012G20KT 9999 SKC QNH3030INS BECMG 1220/1221 01012KT 9999 SKC QNH3028INS TX23/1120Z TN08/1211Z
KVCT 
50nm E 
111733Z 1118/1218 27005KT P6SM FEW250 FM121100 35011KT P6SM SCT180 SCT250
NOTAMs
Click for the latest NOTAMs
NOTAMs are issued by the DoD/FAA and will open in a separate window not controlled by AirNav.

 

 
 

Would you like to see your business listed on this page?

 If your business provides an interesting product or service to pilots, flight crews, aircraft, or users of the Otto Kaiser Hospital Heliport, you should consider listing it here.  To start the listing process, click on the button below
 
Add a business
 

Other Pages about Otto Kaiser Hospital Heliport

Update a link
 
Copyright © AirNav, LLC. All rights reserved. Privacy Policy  Contact